This is the latest recevied weather packets stored in our database for station/object eb1ayw-13. If no packets are shown the sender has not sent any weather packets the latest 10 day(s).
| Time | Temp. | Humidity | Pressure | Rain* | Wind** | Luminosity | Snow |
|---|---|---|---|---|---|---|---|
| 1777289345 | 41.11° C | 21% | 1007.6 hPa | - | - | - | - |
| 1777288745 | 42.78° C | 19% | 1007.3 hPa | - | - | - | - |
| 1777288145 | 40° C | 22% | 1008 hPa | - | - | - | - |
| 1777287545 | 41.11° C | 21% | 1008 hPa | - | - | - | - |
| 1777286945 | 40.56° C | 21% | 1008.3 hPa | - | - | - | - |
| 1777286345 | 40.56° C | 21% | 1008.4 hPa | - | - | - | - |
| 1777285745 | 36.11° C | 25% | 1009.6 hPa | - | - | - | - |
| 1777285145 | 33.89° C | 26% | 1010.2 hPa | - | - | - | - |
| 1777284545 | 37.22° C | 23% | 1009.4 hPa | - | - | - | - |
| 1777283945 | 37.78° C | 23% | 1009.2 hPa | - | - | - | - |
| 1777283345 | 36.11° C | 24% | 1009.6 hPa | - | - | - | - |
| 1777282745 | 42.22° C | 19% | 1008.1 hPa | - | - | - | - |
| 1777282145 | 35.56° C | 25% | 1009.9 hPa | - | - | - | - |
| 1777281545 | 37.22° C | 24% | 1009.6 hPa | - | - | - | - |
| 1777280945 | 35° C | 26% | 1010.1 hPa | - | - | - | - |
| 1777280345 | 35.56° C | 25% | 1009.9 hPa | - | - | - | - |
| 1777279745 | 37.22° C | 23% | 1009.5 hPa | - | - | - | - |
| 1777279145 | 33.89° C | 26% | 1010.4 hPa | - | - | - | - |
| 1777278545 | 32.22° C | 29% | 1010.8 hPa | - | - | - | - |
| 1777277945 | 37.22° C | 24% | 1009.5 hPa | - | - | - | - |
| 1777277345 | 33.33° C | 28% | 1010.7 hPa | - | - | - | - |
| 1777276745 | 34.44° C | 27% | 1010.3 hPa | - | - | - | - |
| 1777276145 | 35.56° C | 25% | 1010 hPa | - | - | - | - |
| 1777275545 | 35° C | 25% | 1010.1 hPa | - | - | - | - |
| 1777274945 | 39.44° C | 21% | 1009 hPa | - | - | - | - |
* Rain since midnight (hover to see other rain measurements)
** Current wind speed in m/s (hover to see current wind gust speed)